Time;durP1;ratioP1;P1;durP2;ratioP2;P2;SDS_P1;SDS_P2;PMS_P1;PMS_P2;Temp;Humidity;BMP_temperature;BMP_pressure;BME280_temperature;BME280_humidity;BME280_pressure;Samples;Min_cycle;Max_cycle;Signal;HPM_P1;HPM_P2
2022/06/08 00:00:18;;;;;;;;;;;;;;;22.78;81.04;96640.65;609555;233;64883;-70
2022/06/08 00:02:46;;;;;;;;;;;;;;;22.79;81.03;96638.76;609548;233;63058;-70
2022/06/08 00:05:14;;;;;;;;;;;;;;;22.79;81.08;96642.23;609540;233;65602;-70
2022/06/08 00:07:41;;;;;;;;;;;;;;;22.79;81.05;96633.41;609579;233;64999;-70
2022/06/08 00:10:09;;;;;;;;;;;;;;;22.78;81.06;96627.25;609792;232;65444;-70
2022/06/08 00:12:37;;;;;;;;;;;;;;;22.78;81.05;96629.93;610391;232;65116;-70
2022/06/08 00:15:06;;;;;;;;;;;;;;;22.78;81.05;96629.93;610273;232;64853;-70
2022/06/08 00:17:33;;;;;;;;;;;;;;;22.78;81.04;96629.11;610325;232;63019;-69
2022/06/08 00:20:01;;;;;;;;;;;;;;;22.77;81.02;96617.61;610341;232;64865;-69
2022/06/08 00:22:28;;;;;;;;;;;;;;;22.78;80.96;96618.39;610347;232;65177;-69
2022/06/08 00:24:56;;;;;;;;;;;;;;;22.77;80.95;96611.45;610381;232;62680;-69
2022/06/08 00:27:23;;;;;;;;;;;;;;;22.77;80.93;96617.61;610320;232;62901;-69
2022/06/08 00:29:51;;;;;;;;;;;;;;;22.77;80.92;96614.92;610245;232;62801;-69
2022/06/08 00:32:18;;;;;;;;;;;;;;;22.77;80.92;96614.92;610319;232;65773;-69
2022/06/08 00:34:46;;;;;;;;;;;;;;;22.77;80.96;96619.49;610345;232;62811;-69
2022/06/08 00:37:14;;;;;;;;;;;;;;;22.77;80.94;96617.61;610368;232;65124;-69
2022/06/08 00:39:41;;;;;;;;;;;;;;;22.78;80.96;96619.22;610311;232;65483;-69
2022/06/08 00:42:10;;;;;;;;;;;;;;;22.77;80.99;96611.45;610308;232;65354;-69
2022/06/08 00:44:48;;;;;;;;;;;;;;;22.77;80.99;96606.09;610214;232;66067;-69
2022/06/08 00:47:17;;;;;;;;;;;;;;;22.77;81.01;96606.89;609852;232;65499;-70
2022/06/08 00:49:52;;;;;;;;;;;;;;;22.76;80.99;96599.95;610253;232;63187;-70
2022/06/08 00:52:20;;;;;;;;;;;;;;;22.76;80.99;96607.98;610376;232;62824;-68
2022/06/08 00:54:50;;;;;;;;;;;;;;;22.77;80.97;96611.45;610250;232;65582;-68
2022/06/08 00:57:28;;;;;;;;;;;;;;;22.77;80.98;96611.45;610168;232;62981;-69
2022/06/08 00:59:58;;;;;;;;;;;;;;;22.76;80.99;96605.31;610328;232;64816;-70
2022/06/08 01:02:26;;;;;;;;;;;;;;;22.76;81.04;96601.84;610301;232;62968;-69
2022/06/08 01:05:12;;;;;;;;;;;;;;;22.75;81.04;96598.38;610362;232;65827;-69
2022/06/08 01:07:40;;;;;;;;;;;;;;;22.76;81.01;96607.20;610360;232;65201;-69
2022/06/08 01:10:10;;;;;;;;;;;;;;;22.76;81.00;96604.52;610268;232;65910;-69
2022/06/08 01:12:37;;;;;;;;;;;;;;;22.74;81.04;96607.48;610200;232;64791;-69
2022/06/08 01:15:06;;;;;;;;;;;;;;;22.75;80.99;96603.73;610293;232;63087;-69
2022/06/08 01:17:33;;;;;;;;;;;;;;;22.75;81.04;96603.73;610316;232;63019;-69
2022/06/08 01:20:01;;;;;;;;;;;;;;;22.75;81.06;96598.38;610319;232;66364;-69
2022/06/08 01:22:30;;;;;;;;;;;;;;;22.75;81.02;96603.73;610354;232;43613;-69
2022/06/08 01:24:58;;;;;;;;;;;;;;;22.75;81.00;96592.20;610327;232;65409;-69
2022/06/08 01:27:44;;;;;;;;;;;;;;;22.75;81.01;96595.70;610327;231;42826;-69
2022/06/08 01:30:25;;;;;;;;;;;;;;;22.75;80.99;96592.20;592092;239;62826;-69
2022/06/08 01:33:03;;;;;;;;;;;;;;;22.75;81.01;96595.70;605846;232;63013;-68
2022/06/08 01:35:32;;;;;;;;;;;;;;;22.75;81.00;96597.55;610303;232;65237;-70
2022/06/08 01:38:07;;;;;;;;;;;;;;;22.74;81.02;96602.13;610391;232;62873;-70
2022/06/08 01:40:37;;;;;;;;;;;;;;;22.74;81.03;96604.01;610002;232;62715;-70
2022/06/08 01:43:06;;;;;;;;;;;;;;;22.75;81.05;96592.20;610280;232;65198;-70
2022/06/08 01:45:37;;;;;;;;;;;;;;;22.74;81.04;96586.05;610332;232;64916;-70
2022/06/08 01:48:15;;;;;;;;;;;;;;;22.74;81.03;96587.94;610066;232;65623;-71
2022/06/08 01:51:01;;;;;;;;;;;;;;;22.74;81.04;96594.08;609763;232;62867;-71
2022/06/08 01:53:33;;;;;;;;;;;;;;;22.74;81.02;96590.61;610398;232;65121;-70
2022/06/08 01:56:02;;;;;;;;;;;;;;;22.74;81.02;96596.77;610331;232;65561;-69
2022/06/08 01:58:35;;;;;;;;;;;;;;;22.72;81.02;96596.25;610306;232;66252;-69
2022/06/08 02:01:05;;;;;;;;;;;;;;;22.74;81.02;96598.65;610331;232;65732;-69
2022/06/08 02:03:34;;;;;;;;;;;;;;;22.73;81.07;96603.22;610013;232;62780;-69
2022/06/08 02:06:12;;;;;;;;;;;;;;;22.73;81.05;96607.78;610261;232;62680;-69
2022/06/08 02:08:43;;;;;;;;;;;;;;;22.73;81.08;96605.11;610179;232;65582;-70
2022/06/08 02:11:15;;;;;;;;;;;;;;;22.74;81.07;96601.33;610290;232;65641;-70
2022/06/08 02:13:51;;;;;;;;;;;;;;;22.73;81.05;96600.54;610357;232;64909;-69
2022/06/08 02:16:20;;;;;;;;;;;;;;;22.73;81.05;96602.42;610345;232;63009;-69
2022/06/08 02:18:51;;;;;;;;;;;;;;;22.73;81.09;96599.75;610356;232;65658;-73
2022/06/08 02:21:23;;;;;;;;;;;;;;;22.72;81.05;96598.92;609528;232;64659;-73
2022/06/08 02:23:56;;;;;;;;;;;;;;;22.72;81.08;96606.97;610336;232;62372;-71
2022/06/08 02:26:28;;;;;;;;;;;;;;;22.73;81.07;96608.58;609934;232;65701;-71
2022/06/08 02:29:00;;;;;;;;;;;;;;;22.72;81.03;96609.64;610376;232;64846;-71
2022/06/08 02:31:36;;;;;;;;;;;;;;;22.72;81.03;96604.28;610290;232;62360;-72
2022/06/08 02:36:53;;;;;;;;;;;;;;;22.71;80.98;96600.03;610283;232;66063;-73
2022/06/08 02:39:25;;;;;;;;;;;;;;;22.71;80.97;96597.35;610403;232;64834;-73
2022/06/08 02:41:57;;;;;;;;;;;;;;;22.72;80.94;96598.92;610391;232;46857;-72
2022/06/08 02:44:26;;;;;;;;;;;;;;;22.71;80.94;96593.87;610323;232;65028;-71
2022/06/08 02:47:01;;;;;;;;;;;;;;;22.71;80.92;96605.39;610339;232;65321;-71
2022/06/08 02:49:32;;;;;;;;;;;;;;;22.71;80.93;96608.06;610307;232;65409;-71
2022/06/08 02:52:01;;;;;;;;;;;;;;;22.71;80.94;96602.70;610331;232;65003;-71
2022/06/08 02:54:30;;;;;;;;;;;;;;;22.71;80.92;96599.23;610399;232;62332;-71
2022/06/08 02:57:01;;;;;;;;;;;;;;;22.71;80.96;96601.91;610352;232;46606;-71
2022/06/08 02:59:47;;;;;;;;;;;;;;;22.70;80.95;96602.98;608109;232;65581;-71
2022/06/08 03:02:20;;;;;;;;;;;;;;;22.71;80.90;96601.91;610302;232;65569;-69
2022/06/08 03:04:49;;;;;;;;;;;;;;;22.70;80.91;96603.80;610321;232;65655;-72
2022/06/08 03:07:18;;;;;;;;;;;;;;;22.71;80.86;96607.27;610123;232;65069;-72
2022/06/08 03:09:48;;;;;;;;;;;;;;;22.71;80.89;96596.56;610203;232;65775;-71
2022/06/08 03:12:17;;;;;;;;;;;;;;;22.71;80.90;96601.91;609549;233;64085;-71
2022/06/08 03:14:47;;;;;;;;;;;;;;;22.70;80.92;96601.13;609601;233;63054;-72
2022/06/08 03:17:16;;;;;;;;;;;;;;;22.70;80.86;96605.66;609445;233;65358;-72
2022/06/08 03:19:44;;;;;;;;;;;;;;;22.70;80.87;96602.98;609479;233;67581;-72
2022/06/08 03:22:14;;;;;;;;;;;;;;;22.70;80.84;96602.98;609459;233;64416;-72
2022/06/08 03:24:41;;;;;;;;;;;;;;;22.69;80.90;96599.52;609478;233;63023;-72
2022/06/08 03:27:09;;;;;;;;;;;;;;;22.69;80.90;96596.84;609414;233;68215;-72
2022/06/08 03:29:38;;;;;;;;;;;;;;;22.69;80.90;96601.41;609460;233;64431;-72
2022/06/08 03:32:06;;;;;;;;;;;;;;;22.69;80.84;96599.52;609446;233;66199;-72
2022/06/08 03:34:34;;;;;;;;;;;;;;;22.69;80.79;96612.91;609444;233;67191;-71
2022/06/08 03:37:02;;;;;;;;;;;;;;;22.69;80.84;96615.59;609519;232;64771;-72
2022/06/08 03:39:30;;;;;;;;;;;;;;;22.69;80.82;96610.23;609412;233;65009;-72
2022/06/08 03:41:57;;;;;;;;;;;;;;;22.69;80.82;96604.88;609430;233;67531;-72
2022/06/08 03:44:25;;;;;;;;;;;;;;;22.69;80.81;96604.08;609477;233;64601;-71
2022/06/08 03:46:57;;;;;;;;;;;;;;;22.69;80.83;96607.55;609438;233;63833;-72
2022/06/08 03:49:25;;;;;;;;;;;;;;;22.68;80.79;96603.30;609435;233;64894;-69
2022/06/08 03:51:54;;;;;;;;;;;;;;;22.69;80.81;96601.41;609406;233;68051;-69
2022/06/08 03:54:23;;;;;;;;;;;;;;;22.68;80.81;96603.30;609435;233;65586;-69
2022/06/08 03:56:52;;;;;;;;;;;;;;;22.69;80.78;96604.88;609470;233;64897;-69
2022/06/08 03:59:22;;;;;;;;;;;;;;;22.68;80.79;96597.94;609493;232;43975;-69
2022/06/08 04:01:50;;;;;;;;;;;;;;;22.68;80.76;96599.83;609456;233;62366;-69
2022/06/08 04:04:18;;;;;;;;;;;;;;;22.68;80.75;96608.66;609497;233;64830;-69
2022/06/08 04:06:46;;;;;;;;;;;;;;;22.68;80.74;96614.00;609431;233;67467;-69
2022/06/08 04:09:13;;;;;;;;;;;;;;;22.68;80.73;96613.22;609443;233;65072;-70
2022/06/08 04:11:43;;;;;;;;;;;;;;;22.67;80.72;96617.78;610156;232;66690;-70
2022/06/08 04:14:11;;;;;;;;;;;;;;;22.67;80.72;96617.78;610180;232;64388;-69
2022/06/08 04:16:40;;;;;;;;;;;;;;;22.68;80.72;96618.58;610218;232;65065;-69
2022/06/08 04:19:09;;;;;;;;;;;;;;;22.67;80.66;96617.78;610222;232;46804;-69
2022/06/08 04:21:37;;;;;;;;;;;;;;;22.66;80.64;96618.85;610192;232;67375;-70
2022/06/08 04:24:07;;;;;;;;;;;;;;;22.66;80.65;96616.17;610205;232;62406;-70
2022/06/08 04:26:35;;;;;;;;;;;;;;;22.66;80.60;96616.17;610162;232;67188;-70
2022/06/08 04:29:05;;;;;;;;;;;;;;;22.67;80.58;96617.78;610302;231;43768;-70
2022/06/08 04:31:34;;;;;;;;;;;;;;;22.67;80.60;96622.32;610179;232;62824;-71
2022/06/08 04:34:04;;;;;;;;;;;;;;;22.66;80.60;96618.06;610224;231;43909;-72
2022/06/08 04:36:33;;;;;;;;;;;;;;;22.66;80.61;96618.85;610189;232;67390;-72
2022/06/08 04:39:02;;;;;;;;;;;;;;;22.66;80.63;96623.42;610196;232;62441;-72
2022/06/08 04:41:30;;;;;;;;;;;;;;;22.66;80.60;96620.73;610157;232;67537;-72
2022/06/08 04:43:57;;;;;;;;;;;;;;;22.66;80.62;96626.89;610204;232;66972;-72
2022/06/08 04:46:25;;;;;;;;;;;;;;;22.66;80.61;96626.09;610183;232;62910;-72
2022/06/08 04:48:53;;;;;;;;;;;;;;;22.66;80.61;96620.73;610171;232;67033;-71
2022/06/08 04:51:22;;;;;;;;;;;;;;;22.66;80.68;96618.06;610253;231;43302;-72
2022/06/08 04:53:50;;;;;;;;;;;;;;;22.65;80.63;96614.59;610170;232;62881;-71
2022/06/08 04:56:18;;;;;;;;;;;;;;;22.66;80.67;96623.42;610218;232;67683;-72
2022/06/08 04:58:48;;;;;;;;;;;;;;;22.65;80.69;96617.27;610242;231;44007;-71
2022/06/08 05:01:16;;;;;;;;;;;;;;;22.65;80.62;96619.95;610177;232;62546;-72
2022/06/08 05:03:43;;;;;;;;;;;;;;;22.66;80.61;96612.70;610188;232;67171;-72
2022/06/08 05:06:12;;;;;;;;;;;;;;;22.65;80.64;96608.45;610154;232;67738;-72
2022/06/08 05:08:40;;;;;;;;;;;;;;;22.65;80.67;96603.88;610247;232;64926;-72
2022/06/08 05:11:09;;;;;;;;;;;;;;;22.65;80.67;96603.88;609583;232;64600;-72
2022/06/08 05:13:37;;;;;;;;;;;;;;;22.65;80.62;96603.09;609406;233;67321;-72
2022/06/08 05:16:07;;;;;;;;;;;;;;;22.65;80.63;96603.88;609481;232;41879;-72
2022/06/08 05:18:36;;;;;;;;;;;;;;;22.64;80.65;96601.48;609465;232;44475;-72
2022/06/08 05:21:06;;;;;;;;;;;;;;;22.63;80.62;96600.69;609449;232;48138;-71
2022/06/08 05:23:36;;;;;;;;;;;;;;;22.64;80.60;96596.13;609462;233;64831;-72
2022/06/08 05:26:05;;;;;;;;;;;;;;;22.63;80.60;96589.98;609436;232;46052;-72
2022/06/08 05:28:34;;;;;;;;;;;;;;;22.64;80.53;96599.59;609340;233;64378;-72
2022/06/08 05:31:01;;;;;;;;;;;;;;;22.63;80.58;96595.33;609393;233;65114;-72
2022/06/08 05:33:31;;;;;;;;;;;;;;;22.64;80.52;96602.27;609478;232;46017;-72
2022/06/08 05:36:00;;;;;;;;;;;;;;;22.64;80.58;96596.91;609334;232;44372;-72
2022/06/08 05:38:29;;;;;;;;;;;;;;;22.62;80.54;96591.08;609378;233;65686;-71
2022/06/08 05:40:57;;;;;;;;;;;;;;;22.64;80.52;96588.09;609374;233;64374;-71
2022/06/08 05:43:25;;;;;;;;;;;;;;;22.63;80.51;96595.33;609412;233;66870;-72
2022/06/08 05:45:54;;;;;;;;;;;;;;;22.63;80.50;96589.19;609433;233;65692;-71
2022/06/08 05:48:21;;;;;;;;;;;;;;;22.63;80.52;96594.54;609514;233;64740;-69
2022/06/08 05:50:49;;;;;;;;;;;;;;;22.63;80.50;96597.22;609408;233;67383;-69
2022/06/08 05:53:19;;;;;;;;;;;;;;;22.62;80.52;96593.75;609463;232;43625;-70
2022/06/08 05:55:46;;;;;;;;;;;;;;;22.62;80.48;96593.75;609315;233;66996;-71
2022/06/08 05:58:14;;;;;;;;;;;;;;;22.61;80.52;96592.94;609392;233;64516;-71
2022/06/08 06:00:43;;;;;;;;;;;;;;;22.62;80.56;96599.11;608919;233;65735;-68
2022/06/08 06:03:12;;;;;;;;;;;;;;;22.62;80.67;96593.75;609427;232;43744;-69
2022/06/08 06:05:41;;;;;;;;;;;;;;;22.63;80.64;96595.33;609409;233;66842;-70
2022/06/08 06:08:11;;;;;;;;;;;;;;;22.61;80.68;96590.25;609334;232;42446;-67
2022/06/08 06:10:41;;;;;;;;;;;;;;;22.61;80.72;96592.94;609623;232;44944;-67
2022/06/08 06:13:10;;;;;;;;;;;;;;;22.61;80.70;96600.97;610215;232;64524;-66
2022/06/08 06:15:40;;;;;;;;;;;;;;;22.60;79.76;96601.27;610091;232;46399;-66
2022/06/08 06:18:08;;;;;;;;;;;;;;;22.61;80.72;96602.86;610169;232;64807;-66
2022/06/08 06:20:38;;;;;;;;;;;;;;;22.61;80.52;96598.29;610137;232;64982;-68
2022/06/08 06:23:17;;;;;;;;;;;;;;;22.63;80.70;96598.02;610216;231;43829;-66
2022/06/08 06:25:47;;;;;;;;;;;;;;;22.64;81.04;96601.48;609790;232;48009;-66
2022/06/08 06:28:25;;;;;;;;;;;;;;;22.64;81.21;96596.91;609000;232;47898;-67
2022/06/08 06:31:00;;;;;;;;;;;;;;;22.64;81.22;96596.91;609623;232;43802;-68
2022/06/08 06:33:45;;;;;;;;;;;;;;;22.65;81.17;96587.02;610194;231;44968;-66
2022/06/08 06:36:13;;;;;;;;;;;;;;;22.64;81.24;96594.23;610120;232;67439;-67
2022/06/08 06:38:41;;;;;;;;;;;;;;;22.66;81.27;96589.39;610177;232;63726;-64
2022/06/08 06:41:11;;;;;;;;;;;;;;;22.66;81.27;96584.03;610207;232;64807;-66
2022/06/08 06:43:39;;;;;;;;;;;;;;;22.67;81.36;96585.64;610124;232;67775;-64
2022/06/08 06:46:15;;;;;;;;;;;;;;;22.68;81.39;96583.75;610218;231;43845;-68
2022/06/08 06:48:44;;;;;;;;;;;;;;;22.69;80.54;96579.98;610121;232;47144;-70
2022/06/08 06:51:12;;;;;;;;;;;;;;;22.68;77.05;96575.72;610129;232;67305;-70
2022/06/08 06:53:40;;;;;;;;;;;;;;;22.68;78.26;96578.40;610165;232;62390;-70
2022/06/08 06:56:08;;;;;;;;;;;;;;;22.66;77.97;96567.96;610132;232;67699;-67
2022/06/08 06:58:41;;;;;;;;;;;;;;;22.68;78.37;96565.00;610333;231;44279;-66
2022/06/08 07:01:11;;;;;;;;;;;;;;;22.68;78.72;96551.61;610128;232;65347;-67
2022/06/08 07:03:39;;;;;;;;;;;;;;;22.68;79.16;96560.44;610134;232;64715;-69
2022/06/08 07:06:07;;;;;;;;;;;;;;;22.70;79.58;96547.55;610157;232;67433;-66
2022/06/08 07:08:36;;;;;;;;;;;;;;;22.68;75.56;96557.77;610139;232;65788;-68
2022/06/08 07:13:52;;;;;;;;;;;;;;;22.69;73.48;96559.34;610235;232;67480;-68
2022/06/08 07:16:22;;;;;;;;;;;;;;;22.66;72.33;96549.21;610212;231;45010;-64
2022/06/08 07:18:49;;;;;;;;;;;;;;;22.68;73.34;96543.58;610152;232;67709;-66
2022/06/08 07:21:17;;;;;;;;;;;;;;;22.68;75.73;96541.69;610142;232;67546;-66
2022/06/08 07:23:45;;;;;;;;;;;;;;;22.69;76.70;96542.48;610180;232;65044;-65
2022/06/08 07:26:12;;;;;;;;;;;;;;;22.69;77.45;96550.52;610166;232;67191;-67
2022/06/08 07:28:40;;;;;;;;;;;;;;;22.68;77.85;96549.72;610128;232;66844;-65
2022/06/08 07:31:11;;;;;;;;;;;;;;;22.68;77.97;96551.61;610119;232;65167;-65
2022/06/08 07:33:41;;;;;;;;;;;;;;;22.67;78.10;96541.97;607429;232;49598;-66
2022/06/08 07:36:08;;;;;;;;;;;;;;;22.68;78.17;96549.72;607310;233;67200;-66
2022/06/08 07:38:36;;;;;;;;;;;;;;;22.68;78.28;96552.41;603515;233;66498;-66
2022/06/08 07:41:04;;;;;;;;;;;;;;;22.68;78.22;96547.05;607321;233;64977;-66
2022/06/08 07:43:31;;;;;;;;;;;;;;;22.68;78.01;96543.58;607349;233;65590;-67
2022/06/08 07:45:59;;;;;;;;;;;;;;;22.67;78.02;96548.14;607305;233;63578;-66
2022/06/08 07:51:12;;;;;;;;;;;;;;;22.69;76.57;96562.02;607309;233;67094;-68
2022/06/08 07:53:40;;;;;;;;;;;;;;;22.69;77.31;96543.27;607247;232;63055;-68
2022/06/08 07:56:08;;;;;;;;;;;;;;;22.68;78.08;96536.33;607277;233;66909;-66
2022/06/08 07:58:36;;;;;;;;;;;;;;;22.69;78.43;96535.23;607198;233;64912;-67
2022/06/08 08:01:04;;;;;;;;;;;;;;;22.69;78.76;96535.23;607094;233;65216;-67
2022/06/08 08:03:31;;;;;;;;;;;;;;;22.70;78.92;96536.02;606870;233;67539;-66
2022/06/08 08:05:59;;;;;;;;;;;;;;;22.70;79.18;96531.48;607206;233;67280;-68
2022/06/08 08:08:27;;;;;;;;;;;;;;;22.70;79.39;96531.48;607321;233;64920;-67
2022/06/08 08:10:54;;;;;;;;;;;;;;;22.70;79.38;96531.48;605666;233;67087;-67
2022/06/08 08:13:21;;;;;;;;;;;;;;;22.71;79.56;96532.27;604656;234;67024;-65
2022/06/08 08:15:51;;;;;;;;;;;;;;;22.69;77.51;96529.88;600356;234;62315;-64
2022/06/08 08:18:19;;;;;;;;;;;;;;;22.71;78.82;96526.91;599629;234;64766;-65
2022/06/08 08:20:46;;;;;;;;;;;;;;;22.69;75.81;96527.20;604583;232;66873;-66
2022/06/08 08:23:14;;;;;;;;;;;;;;;22.71;77.28;96524.23;604604;234;62682;-70
2022/06/08 08:25:42;;;;;;;;;;;;;;;22.71;78.49;96527.70;604653;232;67233;-66
2022/06/08 08:28:09;;;;;;;;;;;;;;;22.71;78.50;96525.03;606014;232;67051;-71
2022/06/08 08:30:37;;;;;;;;;;;;;;;22.71;79.08;96522.34;610202;232;65792;-70
2022/06/08 08:33:04;;;;;;;;;;;;;;;22.72;79.47;96523.92;610684;231;67347;-69
2022/06/08 08:35:32;;;;;;;;;;;;;;;22.71;78.66;96525.03;597459;237;67052;-69
2022/06/08 08:38:00;;;;;;;;;;;;;;;22.72;78.12;96523.92;604089;235;64862;-70
2022/06/08 08:40:46;;;;;;;;;;;;;;;22.73;78.13;96520.17;604094;235;65625;-71
2022/06/08 08:43:14;;;;;;;;;;;;;;;22.72;77.42;96523.92;604018;235;66726;-72
2022/06/08 08:45:44;;;;;;;;;;;;;;;22.74;77.71;96515.61;606885;232;64866;-72
2022/06/08 08:48:13;;;;;;;;;;;;;;;22.74;78.16;96516.40;608312;233;64857;-70
2022/06/08 08:50:42;;;;;;;;;;;;;;;22.73;78.65;96506.78;609309;233;65126;-75
2022/06/08 08:53:12;;;;;;;;;;;;;;;22.74;79.19;96507.58;609251;233;64888;-74
2022/06/08 08:55:41;;;;;;;;;;;;;;;22.72;78.48;96507.86;609376;233;64914;-70
2022/06/08 08:58:14;;;;;;;;;;;;;;;22.73;79.09;96511.35;609105;233;66919;-73
2022/06/08 09:00:43;;;;;;;;;;;;;;;22.74;76.45;96508.36;609366;233;64897;-72
2022/06/08 09:03:27;;;;;;;;;;;;;;;22.74;77.23;96500.33;609375;233;64884;-69
2022/06/08 09:05:57;;;;;;;;;;;;;;;22.75;78.36;96509.16;609312;233;64947;-69
2022/06/08 09:08:25;;;;;;;;;;;;;;;22.73;78.73;96506.00;609374;233;62681;-70
2022/06/08 09:10:55;;;;;;;;;;;;;;;22.73;79.02;96498.75;609813;232;67351;-70
2022/06/08 09:13:24;;;;;;;;;;;;;;;22.74;79.19;96499.54;610011;232;67110;-70
2022/06/08 09:15:56;;;;;;;;;;;;;;;22.73;79.28;96498.75;610161;232;65222;-70
2022/06/08 09:18:31;;;;;;;;;;;;;;;22.73;79.40;96496.07;610122;232;67467;-67
2022/06/08 09:20:59;;;;;;;;;;;;;;;22.71;79.44;96500.92;610081;232;65720;-70
2022/06/08 09:23:29;;;;;;;;;;;;;;;22.72;79.68;96502.50;610140;232;62990;-69
2022/06/08 09:26:03;;;;;;;;;;;;;;;22.72;79.86;96493.67;610082;232;64814;-70
2022/06/08 09:28:32;;;;;;;;;;;;;;;22.71;79.88;96492.88;610142;232;64797;-70
2022/06/08 09:31:01;;;;;;;;;;;;;;;22.72;79.81;96491.00;610139;232;65143;-69
2022/06/08 09:33:30;;;;;;;;;;;;;;;22.71;79.81;96492.88;610070;232;67233;-69
2022/06/08 09:36:08;;;;;;;;;;;;;;;22.71;79.87;96492.88;610057;232;67352;-69
2022/06/08 09:38:37;;;;;;;;;;;;;;;22.71;79.79;96490.20;608682;232;65084;-69
2022/06/08 09:41:15;;;;;;;;;;;;;;;22.72;79.88;96491.78;610001;232;67527;-70
2022/06/08 09:43:54;;;;;;;;;;;;;;;22.72;79.91;96489.11;610112;232;67059;-69
2022/06/08 09:52:02;;;;;;;;;;;;;;;22.73;79.93;96487.25;610181;232;67165;-68
2022/06/08 09:54:33;;;;;;;;;;;;;;;22.71;79.93;96490.20;609757;232;63864;-69
2022/06/08 09:57:02;;;;;;;;;;;;;;;22.72;79.97;96488.31;609793;232;64833;-69
2022/06/08 09:59:35;;;;;;;;;;;;;;;22.71;80.02;96484.84;609551;232;66939;-69
2022/06/08 10:02:04;;;;;;;;;;;;;;;22.71;79.97;96479.48;610068;232;62671;-69
2022/06/08 10:04:47;;;;;;;;;;;;;;;22.73;80.06;96476.53;608906;232;67058;-69
2022/06/08 10:07:16;;;;;;;;;;;;;;;22.71;75.29;96479.48;610108;232;67583;-69
2022/06/08 10:09:55;;;;;;;;;;;;;;;22.72;76.40;96478.39;610069;232;64891;-69
2022/06/08 10:12:24;;;;;;;;;;;;;;;22.72;77.87;96481.07;610178;232;67267;-69
2022/06/08 10:14:55;;;;;;;;;;;;;;;22.72;78.28;96478.39;609926;232;67051;-69
2022/06/08 10:17:27;;;;;;;;;;;;;;;22.70;78.45;96472.55;609976;232;65049;-68
2022/06/08 10:19:56;;;;;;;;;;;;;;;22.70;78.46;96472.55;609874;232;64988;-68
2022/06/08 10:22:27;;;;;;;;;;;;;;;22.70;78.42;96467.20;606864;232;64733;-68
2022/06/08 10:25:07;;;;;;;;;;;;;;;22.69;78.30;96462.91;609968;232;64905;-69
2022/06/08 10:27:36;;;;;;;;;;;;;;;22.70;78.09;96464.52;592125;232;64181;-68
2022/06/08 10:30:08;;;;;;;;;;;;;;;22.70;78.15;96464.52;610155;232;65378;-70
2022/06/08 10:32:38;;;;;;;;;;;;;;;22.70;78.17;96459.16;609835;232;65030;-70
2022/06/08 10:35:19;;;;;;;;;;;;;;;22.72;76.85;96448.92;610169;232;64790;-69
2022/06/08 10:37:47;;;;;;;;;;;;;;;22.71;73.43;96454.59;609975;232;66739;-68
2022/06/08 10:40:20;;;;;;;;;;;;;;;22.72;75.36;96448.92;610148;232;62927;-68
2022/06/08 10:42:49;;;;;;;;;;;;;;;22.70;73.18;96443.09;610148;232;67352;-68
2022/06/08 10:45:24;;;;;;;;;;;;;;;22.71;74.48;96441.20;610054;232;66690;-68
2022/06/08 10:47:57;;;;;;;;;;;;;;;22.70;75.38;96427.02;610068;232;65122;-69
2022/06/08 10:50:32;;;;;;;;;;;;;;;22.70;76.65;96424.34;610158;232;65094;-69
2022/06/08 10:55:36;;;;;;;;;;;;;;;22.71;77.29;96425.13;600295;232;65053;-69
2022/06/08 10:58:06;;;;;;;;;;;;;;;22.71;77.56;96425.92;610074;232;64999;-68
2022/06/08 11:00:52;;;;;;;;;;;;;;;22.71;77.80;96425.13;610045;232;66934;-69
2022/06/08 11:03:24;;;;;;;;;;;;;;;22.71;77.94;96422.45;610074;232;65246;-68
2022/06/08 11:05:51;;;;;;;;;;;;;;;22.70;78.17;96410.95;609668;232;67219;-69
2022/06/08 11:08:21;;;;;;;;;;;;;;;22.70;78.42;96410.95;610201;232;66840;-69
2022/06/08 11:10:51;;;;;;;;;;;;;;;22.70;78.49;96410.95;609889;232;63066;-69
2022/06/08 11:13:21;;;;;;;;;;;;;;;22.71;78.54;96417.89;609991;232;67294;-70
2022/06/08 11:15:54;;;;;;;;;;;;;;;22.71;78.60;96414.42;610058;232;69187;-68
2022/06/08 11:18:24;;;;;;;;;;;;;;;22.71;78.51;96404.49;610129;232;62456;-69
2022/06/08 11:21:03;;;;;;;;;;;;;;;22.71;78.76;96404.49;610062;232;62074;-68
2022/06/08 11:23:38;;;;;;;;;;;;;;;22.71;78.82;96415.20;610132;232;65044;-69
2022/06/08 11:26:07;;;;;;;;;;;;;;;22.72;78.68;96418.67;610003;232;64882;-69
2022/06/08 11:28:40;;;;;;;;;;;;;;;22.71;78.79;96412.53;609999;232;64782;-70
2022/06/08 11:31:12;;;;;;;;;;;;;;;22.71;78.77;96415.20;610027;232;66946;-70
2022/06/08 11:33:47;;;;;;;;;;;;;;;22.72;78.05;96421.35;608665;232;64932;-69
2022/06/08 11:36:20;;;;;;;;;;;;;;;22.72;78.23;96416.00;610175;232;67414;-68
2022/06/08 11:38:59;;;;;;;;;;;;;;;22.71;78.44;96425.92;608683;232;66894;-69
2022/06/08 11:41:28;;;;;;;;;;;;;;;22.70;78.58;96410.95;609996;232;62728;-71
2022/06/08 11:43:56;;;;;;;;;;;;;;;22.70;78.66;96413.63;610129;232;65547;-70
2022/06/08 11:46:25;;;;;;;;;;;;;;;22.71;78.40;96409.85;610142;232;67079;-68
2022/06/08 11:48:54;;;;;;;;;;;;;;;22.70;78.58;96410.95;609743;232;65076;-68
2022/06/08 11:51:29;;;;;;;;;;;;;;;22.71;78.74;96407.17;610152;232;65316;-69
2022/06/08 11:53:58;;;;;;;;;;;;;;;22.71;78.14;96412.53;610074;232;67056;-69
2022/06/08 11:56:30;;;;;;;;;;;;;;;22.72;77.60;96410.64;609996;232;62614;-69
2022/06/08 11:58:59;;;;;;;;;;;;;;;22.72;78.38;96411.42;599586;232;65014;-69
2022/06/08 12:01:28;;;;;;;;;;;;;;;22.72;79.09;96406.07;610887;231;67139;-69
2022/06/08 12:04:00;;;;;;;;;;;;;;;22.72;79.25;96400.71;611454;232;64977;-69
2022/06/08 12:06:36;;;;;;;;;;;;;;;22.73;79.63;96410.36;611734;232;67246;-71
2022/06/08 12:09:08;;;;;;;;;;;;;;;22.73;79.62;96404.21;611470;232;66997;-70
2022/06/08 12:11:37;;;;;;;;;;;;;;;22.72;79.59;96406.07;610395;232;62776;-70
2022/06/08 12:14:07;;;;;;;;;;;;;;;22.73;79.81;96405.00;610388;232;64607;-70
2022/06/08 12:16:37;;;;;;;;;;;;;;;22.73;79.69;96406.89;609990;232;64485;-72
2022/06/08 12:19:06;;;;;;;;;;;;;;;22.72;79.71;96403.39;610505;232;65480;-74
2022/06/08 12:21:35;;;;;;;;;;;;;;;22.72;79.74;96408.75;610538;232;65269;-68
2022/06/08 12:24:08;;;;;;;;;;;;;;;22.74;78.47;96400.43;610436;232;66937;-68
2022/06/08 12:26:49;;;;;;;;;;;;;;;22.74;78.82;96397.75;609597;232;65026;-68
2022/06/08 12:29:34;;;;;;;;;;;;;;;22.73;78.99;96391.60;610180;232;67249;-70
2022/06/08 12:32:03;;;;;;;;;;;;;;;22.74;79.30;96382.47;610549;232;66873;-70
2022/06/08 12:34:44;;;;;;;;;;;;;;;22.74;79.54;96379.78;609006;232;65059;-70
2022/06/08 12:37:25;;;;;;;;;;;;;;;22.73;79.60;96383.56;610363;232;67108;-69
2022/06/08 12:39:54;;;;;;;;;;;;;;;22.74;79.62;96382.47;610431;232;67237;-70
2022/06/08 12:42:29;;;;;;;;;;;;;;;22.73;79.53;96383.56;610453;232;65036;-69
2022/06/08 12:44:58;;;;;;;;;;;;;;;22.73;79.64;96383.56;610455;232;67219;-69
2022/06/08 12:47:29;;;;;;;;;;;;;;;22.73;79.60;96385.45;610456;232;67009;-69
2022/06/08 12:49:59;;;;;;;;;;;;;;;22.74;79.80;96382.47;610511;232;62969;-69
2022/06/08 12:52:28;;;;;;;;;;;;;;;22.73;79.64;96383.56;610501;232;67303;-72
2022/06/08 12:54:56;;;;;;;;;;;;;;;22.73;79.42;96383.56;610486;232;67775;-72
2022/06/08 12:57:25;;;;;;;;;;;;;;;22.73;79.38;96383.56;610477;232;65118;-71
2022/06/08 12:59:55;;;;;;;;;;;;;;;22.73;79.36;96378.21;610348;232;64761;-68
2022/06/08 13:02:31;;;;;;;;;;;;;;;22.65;79.38;96362.05;610456;232;66912;-69
2022/06/08 13:05:00;;;;;;;;;;;;;;;22.73;79.44;96372.06;610447;232;64984;-69
2022/06/08 13:07:29;;;;;;;;;;;;;;;22.73;79.46;96367.50;610443;232;67483;-69
2022/06/08 13:09:58;;;;;;;;;;;;;;;22.72;79.38;96363.21;610387;232;64778;-69
2022/06/08 13:12:27;;;;;;;;;;;;;;;22.73;79.35;96369.39;610454;232;66147;-69
2022/06/08 13:14:54;;;;;;;;;;;;;;;22.72;79.28;96363.21;610420;232;64951;-69
2022/06/08 13:17:24;;;;;;;;;;;;;;;22.72;79.27;96363.21;610459;232;66941;-68
2022/06/08 13:19:52;;;;;;;;;;;;;;;22.73;79.30;96367.50;610530;232;66072;-70